METAR Data
IDs: Format: Raw Decoded Include TAF

Data at: 0643 UTC 03 Aug 2021

KWVI 030553Z AUTO 14003KT 10SM OVC007 14/14 A3007 RMK AO2 SLP181 T01440139 10217 20144 52003
KWVI 030527Z AUTO 14004KT 10SM BKN006 15/14 A3007 RMK AO2 T01500139
KWVI 030504Z AUTO 14005KT 10SM FEW007 15/14 A3007 RMK AO2 T01500139
KWVI 030453Z AUTO 15005KT 10SM CLR 15/14 A3006 RMK AO2 SLP180 T01500139
KWVI 030353Z AUTO 17004KT 10SM CLR 14/13 A3006 RMK AO2 SLP177 T01440133
KWVI 030253Z AUTO 22005KT 10SM CLR 16/13 A3006 RMK AO2 SLP177 T01610133 55001
KWVI 030153Z AUTO 23005KT 10SM CLR 19/13 A3005 RMK AO2 SLP175 T01890133
KWVI 030053Z AUTO 24008KT 10SM CLR 19/13 A3005 RMK AO2 SLP176 T01940128
KWVI 022353Z AUTO 24008KT 10SM CLR 21/13 A3006 RMK AO2 SLP178 T02110133 10239 20200 58011
KWVI 022253Z AUTO 26007KT 220V300 10SM CLR 22/13 A3007 RMK AO2 SLP182 T02170128
KWVI 022153Z AUTO 25008KT 10SM CLR 23/13 A3008 RMK AO2 SLP187 T02280133
KWVI 022053Z AUTO 25007KT 10SM CLR 23/13 A3009 RMK AO2 SLP189 T02280133 58010
KWVI 021953Z AUTO VRB06KT 10SM CLR 23/13 A3011 RMK AO2 SLP195 T02280133
KWVI 021853Z AUTO 29007KT 10SM CLR 22/13 A3011 RMK AO2 SLP196 T02220133
KWVI 021753Z AUTO VRB05KT 10SM CLR 20/13 A3012 RMK AO2 SLP199 T02000133 10206 20100 58002
KWVI 021653Z AUTO 17006KT 10SM FEW017 19/13 A3012 RMK AO2 SLP200 T01940133
KWVI 021626Z AUTO 00000KT 10SM SCT013 18/13 A3013 RMK AO2 T01780128
KWVI 021553Z AUTO 15003KT 10SM OVC012 16/13 A3013 RMK AO2 SLP202 T01610128
KWVI 021513Z AUTO 15003KT 10SM BKN012 16/13 A3013 RMK AO2 T01610128
KWVI 021453Z AUTO 00000KT 10SM CLR 14/12 A3013 RMK AO2 SLP201 T01440117 51012
KWVI 021353Z AUTO 34004KT 10SM CLR 11/09 A3012 RMK AO2 SLP198 T01110094
KWVI 021338Z AUTO 34003KT 10SM SCT013 10/09 A3012 RMK AO2 T01000094
KWVI 021253Z AUTO 00000KT 10SM BKN012 10/09 A3010 RMK AO2 SLP194 T01000094
KWVI 021153Z AUTO 34003KT 10SM BKN013 12/10 A3009 RMK AO2 SLP189 T01170100 10139 20100 55005
KWVI 021105Z AUTO 35003KT 10SM SCT013 12/10 A3009 RMK AO2 T01220100
KWVI 021053Z AUTO 34004KT 10SM BKN013 11/10 A3009 RMK AO2 SLP187 T01110100
KWVI 020953Z AUTO 34004KT 10SM OVC014 13/11 A3009 RMK AO2 SLP190 T01280111
KWVI 020924Z AUTO 34004KT 10SM BKN014 12/11 A3010 RMK AO2 T01220106
KWVI 020853Z AUTO 33003KT 10SM CLR 12/11 A3010 RMK AO2 SLP194 T01220106 58001
KWVI 020753Z AUTO 34003KT 10SM CLR 13/11 A3011 RMK AO2 SLP195 T01280111 402220128
KWVI 020653Z AUTO 34003KT 10SM CLR 13/11 A3011 RMK AO2 SLP195 T01280111
KWVI 020553Z AUTO 00000KT 10SM CLR 14/12 A3011 RMK AO2 SLP195 T01390117 10211 20139 53008
KWVI 020453Z AUTO 00000KT 10SM CLR 14/12 A3010 RMK AO2 SLP192 T01440122
KWVI 020353Z AUTO 00000KT 10SM CLR 16/12 A3009 RMK AO2 SLP188 T01610122
KWVI 020253Z AUTO 26006KT 10SM CLR 16/12 A3008 RMK AO2 SLP187 T01610122 53002
KWVI 020153Z AUTO 25010KT 10SM CLR 18/12 A3007 RMK AO2 SLP183 T01830122
KWVI 020053Z AUTO 27012KT 10SM CLR 19/12 A3007 RMK AO2 SLP183 T01940122
KWVI 012353Z AUTO 26012KT 10SM CLR 21/12 A3008 RMK AO2 SLP184 T02110122 10222 20178 58007
KWVI 012253Z AUTO 25009KT 10SM CLR 22/13 A3008 RMK AO2 SLP187 T02170128
KWVI 012153Z AUTO 27010G14KT 10SM CLR 21/13 A3009 RMK AO2 SLP190 T02110128
KWVI 012053Z AUTO 28008KT 10SM CLR 21/13 A3010 RMK AO2 SLP192 T02110128 50000
KWVI 011953Z AUTO 25009KT 10SM CLR 21/13 A3010 RMK AO2 SLP191 T02060128
KWVI 011853Z AUTO 24009KT 10SM CLR 21/13 A3010 RMK AO2 SLP192 T02060133